Louisa, KY (41230)

12:55 AM EDT on July 25, 2014 (GMT -0400)
Tri-State / Ferguson (KHTS) Elev 837 ft | 38.37 °N, 82.56 °W | Change Station

Current weather conditions updated 4 minutes ago

Overcast
Overcast
62 °F
Feels Like 62 °F
N
0
Wind Variable Wind from North

Today is forecast to be Much Warmer than yesterday.

Today
High -- | Low -- °F
--% Chance of Precip.
Yesterday
High -- | Low -- °F
Precip. -- in
6:27 AM 8:46 PM
Waning Crescent, 3% visible
Pressure 30.04 in
Visibility 0.2 miles
Clouds
Dew Point 62 °F
Humidity 100%
Rainfall 0.00 in
Snow Depth Not available.
UV Not available.
Pollen 1.50 out of 12
Air Quality Not available.
Flu Activity Not available.
METAR KHTS 250451Z 00000KT 1/4SM FG 17/17 A3005 RMK AO2 SLP170 T01670167 402330167 $

More Conditions Fewer Conditions

Pressure 30.04 in
Visibility 0.2 miles
Clouds
Dew Point 62 °F
Humidity 100%
Rainfall 0.00 in
Snow Depth Not available.
UV Not available.
Pollen 1.50 out of 12
Air Quality Not available.
Flu Activity Not available.
METAR KHTS 250451Z 00000KT 1/4SM FG 17/17 A3005 RMK AO2 SLP170 T01670167 402330167 $

More Conditions Fewer Conditions

10-Day Weather Forecast

Almanac

Astronomy

Jul. 25, 2014 Rise Set
Actual Time 6:27 AM EDT 8:46 PM EDT
Civil Twilight 5:57 AM EDT 9:15 PM EDT
Nautical Twilight 5:20 AM EDT 9:52 PM EDT
Astronomical Twilight 4:40 AM EDT 10:32 PM EDT
Moon 5:25 AM EDT 7:43 PM EDT
Length of Visible Light 15h 18m
Length of Day
14h 18m
Tomorrow will be 1m 39s shorter.
Waning Crescent, 3% of the Moon is Illuminated
Today
Waning Crescent
Jul 26
New
Aug 3
First Quarter
Aug 10
Full
Aug 17
Last Quarter

Today's Extremes

State Highs State Lows

Community

WunderPhotos

Upload Photos

1,737,244 photos uploaded!

Nearby

Snow Depth

Station Depth Elevation
No new snow has been reported.

Earthquake Activity

City Distance Mag. Time & Date
No recent earthquake activity has been reported nearby.
Minimum magnitude displayed is 2.5.

Coastal Water Temperatures

Place Temperature
No Stations Reporting

Nearby Weather Stations

Station Location Temp. Dew Point Humidity Wind Precip. Elev Updated Type
Westmoreland, Huntington, WV 65.1 °F 64 °F 96% NNE  at  0.0 mph 0.00 in / hr 548 ft 12:55 AM EDT Rapid Fire
Paintsville, KY, Paintsville, KY 63.4 °F 63 °F 98% SSW  at  0.0 mph 0.00 in / hr 620 ft 12:55 AM EDT Normal
Boy Scout from Ashland, Ashland, KY 60.4 °F 60 °F 99% ENE  at  0.0 mph 0.00 in / hr 689 ft 12:55 AM EDT Normal
Sherwood Forest, Ashland, KY 63.7 °F 61 °F 90% West  at  0.0 mph 0.00 in / hr 673 ft 12:55 AM EDT Rapid Fire
Cabell County EMS HQ, Huntington, WV 66.6 °F 63 °F 89% West  at  2.0 mph 0.00 in / hr 573 ft 12:55 AM EDT Rapid Fire
SouthAshland, Ashland, KY 61.0 °F 60 °F 96% North  at  0.0 mph 0.00 in / hr 700 ft 12:53 AM EDT Rapid Fire

Show More Stations Show Fewer Stations